CHH2551 ZSAM-ZGSZ
Flight info
| Callsign | CHH2551 |
|---|---|
| Flight time | 0h 58m |
| Altitude | 25600 |
| Route | NUSPA W597 IKATA A470 BEBEM R200 OVGOT |
| Aircraft | B738 |
Departure
| Time | 2026-04-28 08:56 |
|---|---|
| Airport | Xiamen Gaoqi International Airport (ZSAM) |
Arrival
| Time | 2026-04-28 09:55 |
|---|---|
| Airport | Shenzhen Bao'an International Airport (ZGSZ) |
| Time | Latitude | Longitude | Altitude | Speed | Heading |
|---|---|---|---|---|---|
| 2026-04-28 08:29 | 24.53792 | 118.12570 | 70 ft | 0 kts | 143° |
| 2026-04-28 08:47 | 24.53795 | 118.12567 | 69 ft | 2 kts | 143° |
| 2026-04-28 08:47 | 24.53805 | 118.12559 | 69 ft | 0 kts | 142° |
| 2026-04-28 08:47 | 24.53815 | 118.12550 | 69 ft | 2 kts | 130° |
| 2026-04-28 08:47 | 24.53823 | 118.12536 | 69 ft | 2 kts | 114° |
| 2026-04-28 08:48 | 24.53827 | 118.12521 | 69 ft | 2 kts | 97° |
| 2026-04-28 08:48 | 24.53827 | 118.12504 | 69 ft | 2 kts | 81° |
| 2026-04-28 08:48 | 24.53823 | 118.12488 | 69 ft | 2 kts | 64° |
| 2026-04-28 08:48 | 24.53818 | 118.12479 | 69 ft | 0 kts | 53° |
| 2026-04-28 08:49 | 24.53814 | 118.12473 | 69 ft | 0 kts | 51° |
| 2026-04-28 08:51 | 24.53819 | 118.12480 | 69 ft | 3 kts | 51° |
| 2026-04-28 08:51 | 24.53840 | 118.12508 | 69 ft | 6 kts | 51° |
| 2026-04-28 08:52 | 24.53874 | 118.12555 | 69 ft | 10 kts | 51° |
| 2026-04-28 08:52 | 24.53937 | 118.12552 | 69 ft | 12 kts | 323° |
| 2026-04-28 08:52 | 24.54017 | 118.12516 | 69 ft | 14 kts | 27° |
| 2026-04-28 08:52 | 24.54088 | 118.12604 | 69 ft | 17 kts | 52° |
| 2026-04-28 08:53 | 24.54169 | 118.12717 | 69 ft | 21 kts | 52° |
| 2026-04-28 08:53 | 24.54267 | 118.12855 | 69 ft | 25 kts | 52° |
| 2026-04-28 08:53 | 24.54386 | 118.13021 | 68 ft | 29 kts | 51° |
| 2026-04-28 08:53 | 24.54516 | 118.13204 | 68 ft | 31 kts | 54° |
| 2026-04-28 08:54 | 24.54644 | 118.13384 | 68 ft | 29 kts | 52° |
| 2026-04-28 08:54 | 24.54769 | 118.13557 | 68 ft | 28 kts | 54° |
| 2026-04-28 08:54 | 24.54867 | 118.13691 | 67 ft | 15 kts | 43° |
| 2026-04-28 08:54 | 24.54938 | 118.13682 | 67 ft | 9 kts | 286° |
| 2026-04-28 08:55 | 24.54932 | 118.13618 | 67 ft | 8 kts | 257° |
| 2026-04-28 08:55 | 24.54923 | 118.13559 | 67 ft | 8 kts | 263° |
| 2026-04-28 08:55 | 24.54921 | 118.13482 | 67 ft | 12 kts | 249° |
| 2026-04-28 08:55 | 24.54839 | 118.13365 | 67 ft | 43 kts | 233° |
| 2026-04-28 08:56 | 24.54510 | 118.12904 | 68 ft | 109 kts | 232° |
| 2026-04-28 08:56 | 24.53924 | 118.12085 | 70 ft | 162 kts | 230° |
| 2026-04-28 08:56 | 24.53200 | 118.11068 | 483 ft | 174 kts | 229° |
| 2026-04-28 08:56 | 24.52481 | 118.10052 | 1216 ft | 171 kts | 230° |
| 2026-04-28 08:57 | 24.51746 | 118.09002 | 1787 ft | 178 kts | 230° |
| 2026-04-28 08:57 | 24.50966 | 118.07909 | 2322 ft | 188 kts | 230° |
| 2026-04-28 08:57 | 24.50124 | 118.06746 | 2811 ft | 204 kts | 230° |
| 2026-04-28 08:57 | 24.49220 | 118.05492 | 3376 ft | 217 kts | 230° |
| 2026-04-28 08:58 | 24.48250 | 118.04136 | 3893 ft | 235 kts | 231° |
| 2026-04-28 08:58 | 24.47240 | 118.02717 | 4672 ft | 240 kts | 231° |
| 2026-04-28 08:58 | 24.46213 | 118.01283 | 5515 ft | 242 kts | 230° |
| 2026-04-28 08:58 | 24.45008 | 117.99998 | 6298 ft | 245 kts | 213° |
| 2026-04-28 08:59 | 24.43416 | 117.99355 | 7049 ft | 251 kts | 190° |
| 2026-04-28 08:59 | 24.41684 | 117.99160 | 7821 ft | 254 kts | 186° |
| 2026-04-28 08:59 | 24.39927 | 117.98997 | 8592 ft | 257 kts | 187° |
| 2026-04-28 08:59 | 24.38152 | 117.98800 | 9358 ft | 260 kts | 188° |
| 2026-04-28 09:00 | 24.36362 | 117.98516 | 10092 ft | 262 kts | 196° |
| 2026-04-28 09:00 | 24.34713 | 117.97744 | 10808 ft | 261 kts | 218° |
| 2026-04-28 09:00 | 24.33418 | 117.96295 | 11297 ft | 272 kts | 233° |
| 2026-04-28 09:00 | 24.32263 | 117.94592 | 11696 ft | 287 kts | 234° |
| 2026-04-28 09:01 | 24.31042 | 117.92802 | 12102 ft | 301 kts | 233° |
| 2026-04-28 09:01 | 24.29740 | 117.90942 | 12484 ft | 317 kts | 233° |
| 2026-04-28 09:01 | 24.28359 | 117.89001 | 12863 ft | 331 kts | 232° |
| 2026-04-28 09:01 | 24.26927 | 117.86999 | 13456 ft | 339 kts | 232° |
| 2026-04-28 09:02 | 24.25470 | 117.84966 | 14085 ft | 343 kts | 232° |
| 2026-04-28 09:02 | 24.23917 | 117.82949 | 14713 ft | 348 kts | 228° |
| 2026-04-28 09:02 | 24.22232 | 117.81050 | 15362 ft | 351 kts | 226° |
| 2026-04-28 09:02 | 24.20471 | 117.79196 | 16007 ft | 355 kts | 225° |
| 2026-04-28 09:03 | 24.18682 | 117.77344 | 16670 ft | 356 kts | 225° |
| 2026-04-28 09:03 | 24.16883 | 117.75469 | 17241 ft | 360 kts | 225° |
| 2026-04-28 09:03 | 24.15082 | 117.73571 | 17857 ft | 363 kts | 225° |
| 2026-04-28 09:03 | 24.13265 | 117.71640 | 18385 ft | 367 kts | 226° |
| 2026-04-28 09:04 | 24.11426 | 117.69674 | 18945 ft | 370 kts | 226° |
| 2026-04-28 09:04 | 24.09587 | 117.67705 | 19502 ft | 373 kts | 226° |
| 2026-04-28 09:04 | 24.07733 | 117.65719 | 19985 ft | 377 kts | 226° |
| 2026-04-28 09:04 | 24.05862 | 117.63716 | 20546 ft | 378 kts | 226° |
| 2026-04-28 09:05 | 24.03983 | 117.61704 | 21045 ft | 381 kts | 226° |
| 2026-04-28 09:05 | 24.02083 | 117.59668 | 21501 ft | 385 kts | 226° |
| 2026-04-28 09:05 | 24.00174 | 117.57621 | 21965 ft | 388 kts | 226° |
| 2026-04-28 09:05 | 23.98231 | 117.55539 | 22413 ft | 391 kts | 226° |
| 2026-04-28 09:06 | 23.96287 | 117.53455 | 22874 ft | 395 kts | 226° |
| 2026-04-28 09:06 | 23.94325 | 117.51353 | 23345 ft | 397 kts | 226° |
| 2026-04-28 09:06 | 23.92352 | 117.49240 | 23755 ft | 401 kts | 226° |
| 2026-04-28 09:06 | 23.90364 | 117.47114 | 24234 ft | 403 kts | 226° |
| 2026-04-28 09:07 | 23.88443 | 117.45061 | 24669 ft | 405 kts | 226° |
| 2026-04-28 09:07 | 23.86485 | 117.42854 | 25072 ft | 407 kts | 230° |
| 2026-04-28 09:07 | 23.84774 | 117.40378 | 25451 ft | 409 kts | 238° |
| 2026-04-28 09:07 | 23.83427 | 117.37642 | 25478 ft | 411 kts | 246° |
| 2026-04-28 09:08 | 23.82390 | 117.34762 | 25473 ft | 407 kts | 250° |
| 2026-04-28 09:08 | 23.81505 | 117.31845 | 25471 ft | 407 kts | 252° |
| 2026-04-28 09:08 | 23.80678 | 117.28891 | 25470 ft | 407 kts | 253° |
| 2026-04-28 09:08 | 23.79877 | 117.25957 | 25467 ft | 406 kts | 253° |
| 2026-04-28 09:09 | 23.79074 | 117.23011 | 25464 ft | 406 kts | 253° |
| 2026-04-28 09:09 | 23.78260 | 117.20052 | 25466 ft | 406 kts | 252° |
| 2026-04-28 09:09 | 23.77414 | 117.17123 | 25463 ft | 407 kts | 251° |
| 2026-04-28 09:09 | 23.76334 | 117.14294 | 25460 ft | 405 kts | 242° |
| 2026-04-28 09:10 | 23.74801 | 117.11725 | 25463 ft | 405 kts | 233° |
| 2026-04-28 09:10 | 23.72985 | 117.09381 | 25461 ft | 405 kts | 229° |
| 2026-04-28 09:10 | 23.71065 | 117.07150 | 25453 ft | 405 kts | 227° |
| 2026-04-28 09:10 | 23.69097 | 117.04956 | 25454 ft | 406 kts | 226° |
| 2026-04-28 09:11 | 23.67106 | 117.02759 | 25455 ft | 405 kts | 226° |
| 2026-04-28 09:11 | 23.65132 | 117.00576 | 25456 ft | 406 kts | 226° |
| 2026-04-28 09:11 | 23.63158 | 116.98378 | 25450 ft | 406 kts | 226° |
| 2026-04-28 09:11 | 23.61197 | 116.96180 | 25453 ft | 406 kts | 227° |
| 2026-04-28 09:12 | 23.59235 | 116.93971 | 25453 ft | 407 kts | 227° |
| 2026-04-28 09:12 | 23.57277 | 116.91758 | 25454 ft | 406 kts | 227° |
| 2026-04-28 09:12 | 23.55323 | 116.89545 | 25455 ft | 406 kts | 227° |
| 2026-04-28 09:12 | 23.53354 | 116.87315 | 25454 ft | 407 kts | 227° |
| 2026-04-28 09:13 | 23.51400 | 116.85101 | 25453 ft | 406 kts | 227° |
| 2026-04-28 09:13 | 23.49445 | 116.82885 | 25453 ft | 408 kts | 227° |
| 2026-04-28 09:13 | 23.47484 | 116.80663 | 25455 ft | 408 kts | 227° |
| 2026-04-28 09:13 | 23.45528 | 116.78456 | 25456 ft | 406 kts | 227° |
| 2026-04-28 09:14 | 23.43508 | 116.76329 | 25456 ft | 404 kts | 223° |
| 2026-04-28 09:14 | 23.41361 | 116.74356 | 25455 ft | 406 kts | 220° |
| 2026-04-28 09:14 | 23.39116 | 116.72450 | 25455 ft | 409 kts | 219° |
| 2026-04-28 09:14 | 23.36855 | 116.70593 | 25453 ft | 407 kts | 218° |
| 2026-04-28 09:15 | 23.34597 | 116.68757 | 25453 ft | 406 kts | 218° |
| 2026-04-28 09:15 | 23.32330 | 116.66914 | 25457 ft | 409 kts | 218° |
| 2026-04-28 09:15 | 23.30063 | 116.65062 | 25455 ft | 408 kts | 218° |
| 2026-04-28 09:15 | 23.27804 | 116.63209 | 25453 ft | 408 kts | 219° |
| 2026-04-28 09:16 | 23.25550 | 116.61354 | 25454 ft | 407 kts | 219° |
| 2026-04-28 09:16 | 23.23284 | 116.59482 | 25451 ft | 407 kts | 219° |
| 2026-04-28 09:16 | 23.21038 | 116.57625 | 25451 ft | 407 kts | 219° |
| 2026-04-28 09:16 | 23.18786 | 116.55760 | 25450 ft | 408 kts | 219° |
| 2026-04-28 09:17 | 23.16537 | 116.53898 | 25449 ft | 408 kts | 219° |
| 2026-04-28 09:17 | 23.14290 | 116.52037 | 25450 ft | 406 kts | 219° |
| 2026-04-28 09:17 | 23.12049 | 116.50182 | 25449 ft | 406 kts | 219° |
| 2026-04-28 09:17 | 23.09806 | 116.48327 | 25450 ft | 407 kts | 219° |
| 2026-04-28 09:18 | 23.07542 | 116.46454 | 25450 ft | 407 kts | 219° |
| 2026-04-28 09:18 | 23.05294 | 116.44596 | 25449 ft | 407 kts | 219° |
| 2026-04-28 09:18 | 23.03046 | 116.42738 | 25449 ft | 406 kts | 219° |
| 2026-04-28 09:18 | 23.00818 | 116.40863 | 25449 ft | 406 kts | 221° |
| 2026-04-28 09:19 | 22.98780 | 116.38765 | 25448 ft | 404 kts | 229° |
| 2026-04-28 09:19 | 22.97085 | 116.36351 | 25449 ft | 404 kts | 238° |
| 2026-04-28 09:19 | 22.95752 | 116.33673 | 25450 ft | 404 kts | 245° |
| 2026-04-28 09:19 | 22.94734 | 116.30820 | 25446 ft | 404 kts | 252° |
| 2026-04-28 09:20 | 22.94066 | 116.27866 | 25452 ft | 405 kts | 258° |
| 2026-04-28 09:20 | 22.93639 | 116.24858 | 25449 ft | 405 kts | 262° |
| 2026-04-28 09:20 | 22.93326 | 116.21830 | 25451 ft | 406 kts | 263° |
| 2026-04-28 09:20 | 22.93056 | 116.18796 | 25451 ft | 406 kts | 263° |
| 2026-04-28 09:21 | 22.92792 | 116.15758 | 25452 ft | 407 kts | 263° |
| 2026-04-28 09:21 | 22.92521 | 116.12723 | 25451 ft | 406 kts | 263° |
| 2026-04-28 09:21 | 22.92237 | 116.09663 | 25456 ft | 407 kts | 263° |
| 2026-04-28 09:21 | 22.91946 | 116.06632 | 25454 ft | 405 kts | 263° |
| 2026-04-28 09:22 | 22.91646 | 116.03602 | 25456 ft | 406 kts | 263° |
| 2026-04-28 09:22 | 22.91341 | 116.00576 | 25452 ft | 405 kts | 262° |
| 2026-04-28 09:22 | 22.91030 | 115.97552 | 25451 ft | 406 kts | 262° |
| 2026-04-28 09:22 | 22.90715 | 115.94528 | 25440 ft | 404 kts | 262° |
| 2026-04-28 09:23 | 22.90399 | 115.91512 | 25436 ft | 405 kts | 262° |
| 2026-04-28 09:23 | 22.90078 | 115.88469 | 25432 ft | 404 kts | 262° |
| 2026-04-28 09:23 | 22.89793 | 115.85731 | 25431 ft | 404 kts | 263° |
| 2026-04-28 09:23 | 22.89488 | 115.82717 | 25431 ft | 404 kts | 263° |
| 2026-04-28 09:24 | 22.89187 | 115.79707 | 25428 ft | 403 kts | 263° |
| 2026-04-28 09:24 | 22.88886 | 115.76701 | 25430 ft | 402 kts | 263° |
| 2026-04-28 09:24 | 22.88583 | 115.73693 | 25425 ft | 404 kts | 263° |
| 2026-04-28 09:24 | 22.88280 | 115.70684 | 25434 ft | 403 kts | 263° |
| 2026-04-28 09:25 | 22.87976 | 115.67662 | 25437 ft | 402 kts | 263° |
| 2026-04-28 09:25 | 22.87674 | 115.64664 | 25439 ft | 403 kts | 263° |
| 2026-04-28 09:25 | 22.87370 | 115.61655 | 25442 ft | 403 kts | 263° |
| 2026-04-28 09:25 | 22.87066 | 115.58659 | 25446 ft | 403 kts | 263° |
| 2026-04-28 09:26 | 22.86759 | 115.55646 | 25451 ft | 404 kts | 263° |
| 2026-04-28 09:26 | 22.86453 | 115.52638 | 25455 ft | 403 kts | 263° |
| 2026-04-28 09:26 | 22.86147 | 115.49637 | 25457 ft | 402 kts | 263° |
| 2026-04-28 09:26 | 22.85839 | 115.46616 | 25456 ft | 402 kts | 263° |
| 2026-04-28 09:27 | 22.85224 | 115.40610 | 25450 ft | 402 kts | 263° |
| 2026-04-28 09:27 | 22.84915 | 115.37613 | 25446 ft | 402 kts | 263° |
| 2026-04-28 09:27 | 22.84605 | 115.34617 | 25444 ft | 402 kts | 263° |
| 2026-04-28 09:28 | 22.84295 | 115.31623 | 25438 ft | 401 kts | 263° |
| 2026-04-28 09:28 | 22.83984 | 115.28622 | 25436 ft | 400 kts | 263° |
| 2026-04-28 09:28 | 22.83672 | 115.25617 | 25432 ft | 400 kts | 263° |
| 2026-04-28 09:28 | 22.83364 | 115.22635 | 25431 ft | 401 kts | 263° |
| 2026-04-28 09:29 | 22.83054 | 115.19649 | 25433 ft | 401 kts | 263° |
| 2026-04-28 09:29 | 22.82744 | 115.16663 | 25436 ft | 400 kts | 263° |
| 2026-04-28 09:29 | 22.82434 | 115.13689 | 25439 ft | 399 kts | 263° |
| 2026-04-28 09:29 | 22.82123 | 115.10706 | 25441 ft | 400 kts | 263° |
| 2026-04-28 09:30 | 22.81811 | 115.07729 | 25441 ft | 399 kts | 263° |
| 2026-04-28 09:30 | 22.81496 | 115.04731 | 25443 ft | 400 kts | 263° |
| 2026-04-28 09:30 | 22.81182 | 115.01748 | 25446 ft | 400 kts | 263° |
| 2026-04-28 09:30 | 22.80868 | 114.98770 | 25446 ft | 400 kts | 263° |
| 2026-04-28 09:31 | 22.80553 | 114.95785 | 25448 ft | 401 kts | 263° |
| 2026-04-28 09:31 | 22.80237 | 114.92795 | 25444 ft | 402 kts | 263° |
| 2026-04-28 09:31 | 22.79921 | 114.89808 | 25441 ft | 399 kts | 263° |
| 2026-04-28 09:31 | 22.79605 | 114.86833 | 25446 ft | 400 kts | 263° |
| 2026-04-28 09:32 | 22.79286 | 114.83829 | 25446 ft | 400 kts | 263° |
| 2026-04-28 09:32 | 22.78970 | 114.80855 | 25446 ft | 397 kts | 263° |
| 2026-04-28 09:32 | 22.78661 | 114.77951 | 25439 ft | 383 kts | 263° |
| 2026-04-28 09:32 | 22.78362 | 114.75141 | 25350 ft | 372 kts | 263° |
| 2026-04-28 09:33 | 22.78073 | 114.72385 | 25070 ft | 372 kts | 263° |
| 2026-04-28 09:33 | 22.77785 | 114.69569 | 24639 ft | 381 kts | 264° |
| 2026-04-28 09:33 | 22.77499 | 114.66736 | 24143 ft | 380 kts | 263° |
| 2026-04-28 09:33 | 22.77213 | 114.63902 | 23644 ft | 376 kts | 263° |
| 2026-04-28 09:34 | 22.76931 | 114.61117 | 23151 ft | 373 kts | 263° |
| 2026-04-28 09:34 | 22.76651 | 114.58353 | 22679 ft | 369 kts | 263° |
| 2026-04-28 09:34 | 22.76372 | 114.55621 | 22198 ft | 366 kts | 263° |
| 2026-04-28 09:34 | 22.76046 | 114.52916 | 21712 ft | 363 kts | 260° |
| 2026-04-28 09:35 | 22.75553 | 114.50261 | 21238 ft | 360 kts | 257° |
| 2026-04-28 09:35 | 22.74957 | 114.47653 | 20766 ft | 357 kts | 255° |
| 2026-04-28 09:35 | 22.74322 | 114.45060 | 20283 ft | 354 kts | 255° |
| 2026-04-28 09:35 | 22.73689 | 114.42506 | 19812 ft | 352 kts | 255° |
| 2026-04-28 09:36 | 22.73065 | 114.39965 | 19328 ft | 349 kts | 255° |
| 2026-04-28 09:36 | 22.72456 | 114.37453 | 18848 ft | 346 kts | 255° |
| 2026-04-28 09:36 | 22.71856 | 114.34949 | 18364 ft | 343 kts | 255° |
| 2026-04-28 09:36 | 22.71268 | 114.32472 | 17893 ft | 341 kts | 255° |
| 2026-04-28 09:37 | 22.70687 | 114.30010 | 17430 ft | 338 kts | 255° |
| 2026-04-28 09:37 | 22.70110 | 114.27547 | 16954 ft | 336 kts | 255° |
| 2026-04-28 09:37 | 22.69542 | 114.25121 | 16500 ft | 333 kts | 255° |
| 2026-04-28 09:37 | 22.68977 | 114.22714 | 16052 ft | 330 kts | 255° |
| 2026-04-28 09:38 | 22.68420 | 114.20342 | 15794 ft | 321 kts | 255° |
| 2026-04-28 09:38 | 22.67879 | 114.18053 | 15677 ft | 308 kts | 255° |
| 2026-04-28 09:38 | 22.67361 | 114.15863 | 15570 ft | 296 kts | 255° |
| 2026-04-28 09:38 | 22.66863 | 114.13756 | 15465 ft | 284 kts | 255° |
| 2026-04-28 09:39 | 22.66384 | 114.11721 | 15356 ft | 272 kts | 255° |
| 2026-04-28 09:39 | 22.65930 | 114.09788 | 15245 ft | 261 kts | 256° |
| 2026-04-28 09:39 | 22.65612 | 114.07891 | 15095 ft | 252 kts | 265° |
| 2026-04-28 09:39 | 22.65642 | 114.06020 | 14802 ft | 252 kts | 275° |
| 2026-04-28 09:40 | 22.65915 | 114.04153 | 14425 ft | 253 kts | 278° |
| 2026-04-28 09:40 | 22.66249 | 114.02301 | 14112 ft | 251 kts | 278° |
| 2026-04-28 09:40 | 22.66573 | 114.00463 | 13800 ft | 249 kts | 278° |
| 2026-04-28 09:40 | 22.66878 | 113.98626 | 13533 ft | 246 kts | 277° |
| 2026-04-28 09:41 | 22.67169 | 113.96813 | 13311 ft | 246 kts | 277° |
| 2026-04-28 09:41 | 22.67457 | 113.94994 | 13075 ft | 246 kts | 277° |
| 2026-04-28 09:41 | 22.67745 | 113.93190 | 12821 ft | 244 kts | 277° |
| 2026-04-28 09:41 | 22.68031 | 113.91391 | 12586 ft | 243 kts | 277° |
| 2026-04-28 09:42 | 22.68317 | 113.89589 | 12346 ft | 244 kts | 277° |
| 2026-04-28 09:42 | 22.68602 | 113.87787 | 12106 ft | 243 kts | 277° |
| 2026-04-28 09:42 | 22.68887 | 113.85987 | 11864 ft | 241 kts | 277° |
| 2026-04-28 09:42 | 22.69168 | 113.84204 | 11625 ft | 241 kts | 277° |
| 2026-04-28 09:43 | 22.69448 | 113.82427 | 11388 ft | 241 kts | 277° |
| 2026-04-28 09:43 | 22.69729 | 113.80648 | 11148 ft | 240 kts | 277° |
| 2026-04-28 09:43 | 22.70009 | 113.78878 | 10913 ft | 239 kts | 276° |
| 2026-04-28 09:43 | 22.70288 | 113.77114 | 10674 ft | 239 kts | 277° |
| 2026-04-28 09:44 | 22.70569 | 113.75353 | 10438 ft | 237 kts | 277° |
| 2026-04-28 09:44 | 22.70850 | 113.73592 | 10198 ft | 236 kts | 277° |
| 2026-04-28 09:44 | 22.71125 | 113.71844 | 9961 ft | 236 kts | 276° |
| 2026-04-28 09:44 | 22.71397 | 113.70103 | 9723 ft | 236 kts | 276° |
| 2026-04-28 09:45 | 22.71670 | 113.68366 | 9483 ft | 235 kts | 276° |
| 2026-04-28 09:45 | 22.71944 | 113.66636 | 9252 ft | 234 kts | 277° |
| 2026-04-28 09:45 | 22.72219 | 113.64913 | 9020 ft | 233 kts | 277° |
| 2026-04-28 09:45 | 22.72494 | 113.63185 | 8777 ft | 234 kts | 277° |
| 2026-04-28 09:46 | 22.72768 | 113.61444 | 8535 ft | 234 kts | 276° |
| 2026-04-28 09:46 | 22.73080 | 113.59737 | 8444 ft | 231 kts | 282° |
| 2026-04-28 09:46 | 22.73798 | 113.58145 | 8157 ft | 246 kts | 309° |
| 2026-04-28 09:46 | 22.75248 | 113.57158 | 7880 ft | 254 kts | 343° |
| 2026-04-28 09:47 | 22.77016 | 113.56996 | 7597 ft | 258 kts | 359° |
| 2026-04-28 09:47 | 22.78809 | 113.57091 | 7266 ft | 258 kts | 1° |
| 2026-04-28 09:47 | 22.80602 | 113.57195 | 6959 ft | 258 kts | 3° |
| 2026-04-28 09:47 | 22.82382 | 113.57526 | 6636 ft | 260 kts | 19° |
| 2026-04-28 09:48 | 22.83876 | 113.58565 | 6350 ft | 257 kts | 53° |
| 2026-04-28 09:48 | 22.84791 | 113.60184 | 6074 ft | 252 kts | 68° |
| 2026-04-28 09:48 | 22.85507 | 113.61904 | 5763 ft | 252 kts | 69° |
| 2026-04-28 09:48 | 22.86237 | 113.63618 | 5476 ft | 251 kts | 69° |
| 2026-04-28 09:49 | 22.86833 | 113.65370 | 5185 ft | 246 kts | 81° |
| 2026-04-28 09:49 | 22.86857 | 113.67159 | 4919 ft | 235 kts | 112° |
| 2026-04-28 09:49 | 22.86062 | 113.68656 | 4571 ft | 229 kts | 139° |
| 2026-04-28 09:49 | 22.84796 | 113.69668 | 4202 ft | 228 kts | 153° |
| 2026-04-28 09:50 | 22.83397 | 113.70463 | 3884 ft | 226 kts | 155° |
| 2026-04-28 09:50 | 22.82003 | 113.71213 | 3524 ft | 221 kts | 155° |
| 2026-04-28 09:50 | 22.80658 | 113.71942 | 3265 ft | 213 kts | 155° |
| 2026-04-28 09:50 | 22.79350 | 113.72659 | 3025 ft | 209 kts | 155° |
| 2026-04-28 09:51 | 22.78054 | 113.73367 | 2689 ft | 209 kts | 155° |
| 2026-04-28 09:51 | 22.76773 | 113.74066 | 2426 ft | 200 kts | 155° |
| 2026-04-28 09:51 | 22.75557 | 113.74730 | 2175 ft | 192 kts | 155° |
| 2026-04-28 09:51 | 22.74393 | 113.75364 | 1968 ft | 180 kts | 155° |
| 2026-04-28 09:52 | 22.73311 | 113.75956 | 1690 ft | 168 kts | 155° |
| 2026-04-28 09:52 | 22.72312 | 113.76502 | 1487 ft | 154 kts | 155° |
| 2026-04-28 09:52 | 22.71403 | 113.76993 | 1350 ft | 145 kts | 155° |
| 2026-04-28 09:52 | 22.70506 | 113.77485 | 1113 ft | 142 kts | 155° |
| 2026-04-28 09:53 | 22.69622 | 113.77968 | 934 ft | 142 kts | 155° |
| 2026-04-28 09:53 | 22.68737 | 113.78446 | 751 ft | 143 kts | 155° |
| 2026-04-28 09:53 | 22.67846 | 113.78938 | 561 ft | 144 kts | 154° |
| 2026-04-28 09:53 | 22.66958 | 113.79420 | 368 ft | 143 kts | 155° |
| 2026-04-28 09:54 | 22.66074 | 113.79901 | 200 ft | 142 kts | 154° |
| 2026-04-28 09:54 | 22.65192 | 113.80378 | 35 ft | 141 kts | 154° |
| 2026-04-28 09:54 | 22.64369 | 113.80821 | 0 ft | 115 kts | 154° |
| 2026-04-28 09:54 | 22.63859 | 113.81102 | 0 ft | 51 kts | 152° |
| 2026-04-28 09:55 | 22.63642 | 113.81215 | 1 ft | 22 kts | 162° |
| 2026-04-28 09:55 | 22.63500 | 113.81255 | 1 ft | 20 kts | 176° |
| 2026-04-28 09:55 | 22.63370 | 113.81249 | 1 ft | 18 kts | 184° |
| 2026-04-28 09:55 | 22.63250 | 113.81242 | 1 ft | 17 kts | 179° |
| 2026-04-28 09:56 | 22.63145 | 113.81239 | 1 ft | 15 kts | 225° |
| 2026-04-28 09:56 | 22.63121 | 113.81152 | 1 ft | 12 kts | 263° |
| 2026-04-28 09:56 | 22.63112 | 113.81071 | 1 ft | 10 kts | 265° |
| 2026-04-28 09:56 | 22.63105 | 113.81002 | 1 ft | 8 kts | 262° |
| 2026-04-28 09:57 | 22.63080 | 113.80958 | 1 ft | 7 kts | 196° |
| 2026-04-28 09:57 | 22.63041 | 113.80960 | 1 ft | 1 kts | 173° |
| 2026-04-28 09:57 | 22.63039 | 113.80960 | 1 ft | 1 kts | 174° |
| 2026-04-28 09:57 | 22.63033 | 113.80961 | 1 ft | 1 kts | 174° |
| 2026-04-28 09:58 | 22.63030 | 113.80961 | 1 ft | 0 kts | 173° |